Time;durP1;ratioP1;P1;durP2;ratioP2;P2;SDS_P1;SDS_P2;PMS_P1;PMS_P2;Temp;Humidity;BMP_temperature;BMP_pressure;BME280_temperature;BME280_humidity;BME280_pressure;Samples;Min_cycle;Max_cycle;Signal;HPM_P1;HPM_P2
2022/05/23 00:00:08;;;;;;;6.87;1.80;;;15.00;99.90;;;;;;5093461;28;20680;-72
2022/05/23 00:02:34;;;;;;;5.27;1.67;;;14.90;99.90;;;;;;5093581;28;20090;-72
2022/05/23 00:05:00;;;;;;;5.37;1.67;;;14.90;99.90;;;;;;5092058;28;20317;-72
2022/05/23 00:07:30;;;;;;;6.93;2.10;;;14.80;99.90;;;;;;5092758;28;20282;-72
2022/05/23 00:09:56;;;;;;;5.40;2.03;;;14.80;99.90;;;;;;5092783;28;20098;-71
2022/05/23 00:12:22;;;;;;;6.87;2.27;;;14.80;99.90;;;;;;5092311;28;20373;-72
2022/05/23 00:14:50;;;;;;;5.07;1.60;;;14.80;99.90;;;;;;5092427;28;20686;-72
2022/05/23 00:17:17;;;;;;;6.97;1.80;;;14.70;99.90;;;;;;5093127;28;20286;-71
2022/05/23 00:19:42;;;;;;;5.60;1.70;;;14.70;99.90;;;;;;5093250;28;20278;-71
2022/05/23 00:22:08;;;;;;;5.63;1.77;;;14.70;99.90;;;;;;5092832;28;20768;-72
2022/05/23 00:24:34;;;;;;;6.70;1.90;;;14.70;99.90;;;;;;5093014;28;20071;-71
2022/05/23 00:27:00;;;;;;;5.20;1.80;;;14.70;99.90;;;;;;5093374;28;20047;-72
2022/05/23 00:29:25;;;;;;;5.70;2.17;;;14.70;99.90;;;;;;5093064;28;20130;-71
2022/05/23 00:37:21;;;;;;;10.43;1.70;;;14.60;99.90;;;;;;5092933;28;20361;-72
2022/05/23 00:39:47;;;;;;;5.40;1.53;;;14.60;99.90;;;;;;5093013;28;20292;-72
2022/05/23 00:45:00;;;;;;;6.93;1.70;;;14.60;99.90;;;;;;5092727;28;20064;-72
2022/05/23 00:47:28;;;;;;;6.73;1.60;;;14.60;99.90;;;;;;5092729;28;20274;-72
2022/05/23 00:49:54;;;;;;;7.30;2.30;;;14.50;99.90;;;;;;5093079;28;20270;-72
2022/05/23 00:52:31;;;;;;;6.20;1.60;;;14.50;99.90;;;;;;5092754;28;20444;-72
2022/05/23 00:55:01;;;;;;;3.60;1.27;;;14.60;99.90;;;;;;5092872;28;20040;-71
2022/05/23 00:57:42;;;;;;;7.77;1.83;;;14.60;99.90;;;;;;5091396;28;20789;-72
2022/05/23 01:00:10;;;;;;;4.97;1.60;;;14.60;99.90;;;;;;5092784;28;20274;-72
2022/05/23 01:02:37;;;;;;;6.93;1.73;;;14.50;99.90;;;;;;5091694;28;20288;-72
2022/05/23 01:05:08;;;;;;;6.87;2.00;;;14.50;99.90;;;;;;5092763;28;20393;-72
2022/05/23 01:07:34;;;;;;;6.63;1.90;;;14.50;99.90;;;;;;5092789;28;20292;-72
2022/05/23 01:09:59;;;;;;;7.77;1.70;;;14.50;99.90;;;;;;5092541;28;20278;-72
2022/05/23 01:12:27;;;;;;;6.67;1.77;;;14.50;99.90;;;;;;5092563;28;20565;-72
2022/05/23 01:14:56;;;;;;;7.43;1.60;;;14.40;99.90;;;;;;5092940;28;20067;-72
2022/05/23 01:17:23;;;;;;;5.10;1.53;;;14.40;99.90;;;;;;5092537;28;20286;-72
2022/05/23 01:19:49;;;;;;;4.37;1.53;;;14.40;99.90;;;;;;5096530;28;20278;-72
2022/05/23 01:22:45;;;;;;;8.00;2.37;;;14.40;99.90;;;;;;5095472;28;20290;-72
2022/05/23 01:25:17;;;;;;;7.05;1.52;;;14.40;99.90;;;;;;5096620;28;20352;-72
2022/05/23 01:27:43;;;;;;;4.87;1.90;;;14.40;99.90;;;;;;5095785;28;20067;-72
2022/05/23 01:30:09;;;;;;;4.80;1.80;;;14.40;99.90;;;;;;5096313;28;20634;-73
2022/05/23 01:32:35;;;;;;;7.47;1.87;;;14.40;99.90;;;;;;5096540;28;20274;-72
2022/05/23 01:35:01;;;;;;;5.60;1.90;;;14.40;99.90;;;;;;5096363;28;20784;-72
2022/05/23 01:37:26;;;;;;;5.10;1.67;;;14.50;99.90;;;;;;5096279;28;20074;-72
2022/05/23 01:39:52;;;;;;;5.07;2.10;;;14.50;99.90;;;;;;5078787;28;20185;-72
2022/05/23 01:42:18;;;;;;;5.80;1.63;;;14.50;99.90;;;;;;5094953;28;20048;-71
2022/05/23 01:44:43;;;;;;;7.00;1.67;;;14.50;99.90;;;;;;5095992;28;20095;-72
2022/05/23 01:47:12;;;;;;;5.33;1.60;;;14.50;99.90;;;;;;5096207;28;20052;-76
2022/05/23 01:49:39;;;;;;;5.23;1.80;;;14.50;99.90;;;;;;5095123;28;20048;-72
2022/05/23 01:52:07;;;;;;;7.73;1.80;;;14.60;99.90;;;;;;5096273;28;20286;-72
2022/05/23 01:54:34;;;;;;;6.20;2.00;;;14.50;99.90;;;;;;5094934;28;20293;-72
2022/05/23 01:57:01;;;;;;;6.80;2.00;;;14.50;99.90;;;;;;5095942;28;20378;-72
2022/05/23 02:02:11;;;;;;;7.63;1.80;;;14.60;99.90;;;;;;5095736;28;20282;-76
2022/05/23 02:04:36;;;;;;;6.83;1.80;;;14.60;99.90;;;;;;5095934;28;20309;-72
2022/05/23 02:07:03;;;;;;;5.13;1.50;;;14.60;99.90;;;;;;5096069;28;20044;-72
2022/05/23 02:09:29;;;;;;;7.13;1.57;;;14.60;99.90;;;;;;5095653;28;20059;-72
2022/05/23 02:11:56;;;;;;;4.60;1.47;;;14.60;99.90;;;;;;5095641;28;20286;-72
2022/05/23 02:14:21;;;;;;;6.00;1.67;;;14.50;99.90;;;;;;5095460;28;20123;-72
2022/05/23 02:16:47;;;;;;;6.40;2.07;;;14.60;99.90;;;;;;5095567;28;20329;-72
2022/05/23 02:19:13;;;;;;;6.50;2.03;;;14.50;99.90;;;;;;5094309;28;20040;-76
2022/05/23 02:21:38;;;;;;;5.97;1.80;;;14.50;99.90;;;;;;5095534;28;20048;-72
2022/05/23 02:24:04;;;;;;;7.17;1.63;;;14.50;99.90;;;;;;5094271;28;20048;-72
2022/05/23 02:26:31;;;;;;;6.73;1.83;;;14.50;99.90;;;;;;5095281;28;20055;-72
2022/05/23 02:28:57;;;;;;;4.43;1.43;;;14.50;99.90;;;;;;5095245;28;20040;-72
2022/05/23 02:31:24;;;;;;;6.03;1.73;;;14.50;99.90;;;;;;5094089;28;20638;-72
2022/05/23 02:33:50;;;;;;;5.23;1.67;;;14.40;99.90;;;;;;5095428;28;20282;-71
2022/05/23 02:36:15;;;;;;;4.73;1.57;;;14.40;99.90;;;;;;5095170;28;20293;-73
2022/05/23 02:38:41;;;;;;;6.27;1.70;;;14.40;99.90;;;;;;5095345;28;20044;-72
2022/05/23 02:41:07;;;;;;;5.97;1.67;;;14.30;99.90;;;;;;5077367;28;20090;-72
2022/05/23 02:43:33;;;;;;;5.37;1.67;;;14.30;99.90;;;;;;5076988;28;20040;-72
2022/05/23 02:45:58;;;;;;;6.63;1.73;;;14.30;99.90;;;;;;5095202;28;20063;-72
2022/05/23 02:48:24;;;;;;;5.67;1.80;;;14.20;99.90;;;;;;5094921;28;20044;-72
2022/05/23 02:50:50;;;;;;;6.30;1.70;;;14.20;99.90;;;;;;5094913;28;20075;-72
2022/05/23 02:53:16;;;;;;;6.30;1.80;;;14.20;99.90;;;;;;5095139;28;20173;-71
2022/05/23 02:55:41;;;;;;;5.67;2.00;;;14.10;99.90;;;;;;5076994;28;20169;-72
2022/05/23 02:58:07;;;;;;;6.37;1.97;;;14.10;99.90;;;;;;5093513;28;20051;-72
2022/05/23 03:00:34;;;;;;;4.40;1.80;;;14.10;99.90;;;;;;5093548;28;20044;-72
2022/05/23 03:03:03;;;;;;;6.33;1.90;;;14.10;99.90;;;;;;5095026;28;20052;-72
2022/05/23 03:05:31;;;;;;;6.90;2.00;;;14.00;99.90;;;;;;5094581;28;20444;-72
2022/05/23 03:07:56;;;;;;;4.10;1.77;;;14.00;99.90;;;;;;5094824;28;20296;-72
2022/05/23 03:10:23;;;;;;;5.20;1.77;;;14.00;99.90;;;;;;5094392;28;20282;-72
2022/05/23 03:12:48;;;;;;;5.23;1.80;;;14.00;99.90;;;;;;5094566;28;20133;-73
2022/05/23 03:15:14;;;;;;;3.60;1.50;;;13.90;99.90;;;;;;5093181;28;20282;-72
2022/05/23 03:17:41;;;;;;;7.03;1.63;;;14.00;99.90;;;;;;5094377;28;20047;-72
2022/05/23 03:20:07;;;;;;;4.83;1.80;;;;;;;;;;5094543;28;20313;-72
2022/05/23 03:28:03;;;;;;;5.32;1.90;;;;;;;;;;5094740;28;20048;-72
2022/05/23 03:30:29;;;;;;;9.90;2.20;;;;;;;;;;5093219;28;20052;-72
2022/05/23 03:32:57;;;;;;;7.60;1.97;;;;;;;;;;5093408;28;20615;-72
2022/05/23 03:35:23;;;;;;;6.60;1.90;;;;;;;;;;5093031;28;20299;-73
2022/05/23 03:37:49;;;;;;;4.83;1.50;;;;;;;;;;5093825;28;20325;-73
2022/05/23 03:40:16;;;;;;;5.57;1.70;;;;;;;;;;5093943;28;20753;-72
2022/05/23 03:42:42;;;;;;;7.50;1.87;;;;;;;;;;5092703;28;20298;-72
2022/05/23 03:45:08;;;;;;;4.90;1.50;;;;;;;;;;5092536;28;20313;-73
2022/05/23 03:47:34;;;;;;;3.63;1.60;;;13.90;99.90;;;;;;5093726;28;20769;-72
2022/05/23 03:50:01;;;;;;;4.47;1.63;;;13.90;99.90;;;;;;5093897;28;20371;-72
2022/05/23 03:52:27;;;;;;;5.40;2.27;;;13.80;99.90;;;;;;5093423;28;20282;-73
2022/05/23 03:54:52;;;;;;;3.50;1.50;;;13.80;99.90;;;;;;5093815;28;20039;-72
2022/05/23 03:57:18;;;;;;;5.57;2.10;;;13.80;99.90;;;;;;5093946;28;20048;-72
2022/05/23 03:59:45;;;;;;;6.97;1.80;;;13.70;99.90;;;;;;5093540;28;20879;-72
2022/05/23 04:02:11;;;;;;;4.30;1.60;;;13.70;99.90;;;;;;5093626;28;20055;-72
2022/05/23 04:04:37;;;;;;;7.13;2.43;;;13.70;99.90;;;;;;5093207;28;20301;-72
2022/05/23 04:07:05;;;;;;;9.27;2.13;;;13.70;99.90;;;;;;5092503;28;20040;-73
2022/05/23 04:09:31;;;;;;;4.77;1.90;;;13.70;99.90;;;;;;5091988;28;20047;-72
2022/05/23 04:11:58;;;;;;;6.33;1.80;;;13.70;99.90;;;;;;5093537;28;20274;-72
2022/05/23 04:14:28;;;;;;;4.87;1.93;;;13.70;99.90;;;;;;5092538;28;20305;-72
2022/05/23 04:16:54;;;;;;;5.07;2.00;;;13.70;99.90;;;;;;5075713;28;20303;-72
2022/05/23 04:19:21;;;;;;;6.07;2.17;;;13.80;99.90;;;;;;5093355;28;20369;-72
2022/05/23 04:21:48;;;;;;;7.33;2.33;;;13.80;99.90;;;;;;5092956;28;20293;-73
2022/05/23 04:24:15;;;;;;;5.67;2.00;;;13.80;99.90;;;;;;5093323;28;20302;-72
2022/05/23 04:26:42;;;;;;;6.00;2.20;;;13.80;99.90;;;;;;5093123;28;20324;-72
2022/05/23 04:29:08;;;;;;;8.87;2.27;;;13.80;99.90;;;;;;5093279;28;20286;-72
2022/05/23 04:31:35;;;;;;;8.20;2.60;;;13.90;99.90;;;;;;5092863;28;20285;-73
2022/05/23 04:36:47;;;;;;;6.60;2.17;;;13.90;99.90;;;;;;5093011;28;20617;-72
2022/05/23 04:39:12;;;;;;;7.57;2.30;;;13.90;99.90;;;;;;5075127;28;20052;-72
2022/05/23 04:41:38;;;;;;;9.30;2.43;;;14.00;99.90;;;;;;5092725;28;20289;-72
2022/05/23 04:44:04;;;;;;;9.07;3.00;;;14.00;99.90;;;;;;5092958;28;20080;-73
2022/05/23 04:46:30;;;;;;;8.00;2.50;;;14.10;99.90;;;;;;5091187;28;20351;-73
2022/05/23 04:51:54;;;;;;;6.60;2.33;;;14.10;99.90;;;;;;5091277;28;20091;-72
2022/05/23 04:54:19;;;;;;;7.27;2.27;;;14.20;99.90;;;;;;5091119;28;20386;-72
2022/05/23 04:56:45;;;;;;;5.63;2.03;;;14.20;99.90;;;;;;5092527;28;20048;-72
2022/05/23 04:59:11;;;;;;;7.63;2.97;;;14.30;99.90;;;;;;5092667;28;20086;-73
2022/05/23 05:01:36;;;;;;;6.37;2.13;;;14.30;99.90;;;;;;5092749;28;20078;-73
2022/05/23 05:04:02;;;;;;;6.17;2.57;;;14.30;99.90;;;;;;5092969;28;20040;-72
2022/05/23 05:06:28;;;;;;;5.73;2.23;;;14.40;99.90;;;;;;5092729;28;20063;-72
2022/05/23 05:08:53;;;;;;;7.87;2.63;;;14.40;99.90;;;;;;5092374;28;20044;-73
2022/05/23 05:11:19;;;;;;;6.27;2.50;;;14.50;99.90;;;;;;5092712;28;20040;-72
2022/05/23 05:13:45;;;;;;;9.10;2.63;;;14.50;99.90;;;;;;5092322;28;20105;-73
2022/05/23 05:16:11;;;;;;;6.60;2.23;;;14.60;99.90;;;;;;5092935;28;20537;-73
2022/05/23 05:18:37;;;;;;;8.80;2.60;;;14.60;99.90;;;;;;5074305;28;20496;-73
2022/05/23 05:21:07;;;;;;;7.10;2.60;;;14.70;99.90;;;;;;5092663;28;20286;-72
2022/05/23 05:23:33;;;;;;;5.43;2.43;;;14.80;99.90;;;;;;5092358;28;20769;-77
2022/05/23 05:25:59;;;;;;;7.60;2.60;;;14.80;99.90;;;;;;5091384;28;20338;-73
2022/05/23 05:28:24;;;;;;;8.97;2.90;;;14.90;99.90;;;;;;5091189;28;20093;-72
2022/05/23 05:30:59;;;;;;;7.67;2.60;;;15.00;99.90;;;;;;5091036;28;20051;-72
2022/05/23 05:33:31;;;;;;;7.80;2.65;;;15.10;99.90;;;;;;5091664;28;20502;-72
2022/05/23 05:36:03;;;;;;;5.87;3.20;;;15.20;99.90;;;;;;5092376;28;20048;-73
2022/05/23 05:38:36;;;;;;;7.47;2.90;;;15.30;99.90;;;;;;5092464;28;20278;-73
2022/05/23 05:41:07;;;;;;;6.57;2.93;;;15.40;99.90;;;;;;5091236;28;20279;-73
2022/05/23 05:43:43;;;;;;;7.43;3.00;;;15.50;99.90;;;;;;5092563;28;20325;-73
2022/05/23 05:46:15;;;;;;;7.33;2.77;;;15.50;99.90;;;;;;5091343;28;20294;-73
2022/05/23 05:48:46;;;;;;;6.23;2.30;;;15.70;99.90;;;;;;5092188;28;20298;-73
2022/05/23 05:51:13;;;;;;;7.53;2.73;;;15.90;99.90;;;;;;5091232;28;20369;-73
2022/05/23 05:53:40;;;;;;;7.93;2.57;;;16.50;99.90;;;;;;5090692;28;20344;-73
2022/05/23 05:56:06;;;;;;;6.63;2.70;;;17.10;99.90;;;;;;5091187;28;20336;-73
2022/05/23 05:58:33;;;;;;;4.83;2.30;;;17.70;99.90;;;;;;5092295;28;20340;-73
2022/05/23 06:00:59;;;;;;;6.77;2.43;;;18.40;99.90;;;;;;5074313;28;20293;-73
2022/05/23 06:03:25;;;;;;;8.20;2.73;;;19.10;97.30;;;;;;5092147;28;20112;-73
2022/05/23 06:11:26;;;;;;;5.57;2.60;;;20.90;83.30;;;;;;5095039;28;20071;-73
2022/05/23 06:13:57;;;;;;;7.07;2.87;;;21.10;82.10;;;;;;5095625;28;20087;-73
2022/05/23 06:16:28;;;;;;;6.23;2.37;;;21.70;74.10;;;;;;5095755;28;20052;-74
2022/05/23 06:18:54;;;;;;;7.50;2.93;;;22.40;69.70;;;;;;5095630;28;20089;-73
2022/05/23 06:21:20;;;;;;;7.10;2.20;;;22.90;69.00;;;;;;5095897;28;20525;-73
2022/05/23 06:23:46;;;;;;;7.00;3.10;;;23.00;64.40;;;;;;5094148;28;20468;-73
2022/05/23 06:26:15;;;;;;;8.63;2.87;;;23.00;62.70;;;;;;5095626;28;20054;-74
2022/05/23 06:28:42;;;;;;;10.00;2.90;;;22.80;61.20;;;;;;5094125;28;20381;-74
2022/05/23 06:31:09;;;;;;;8.77;2.90;;;22.60;61.30;;;;;;5095400;28;20047;-74
2022/05/23 06:33:36;;;;;;;7.03;3.33;;;22.20;88.90;;;;;;5095554;28;20048;-74
2022/05/23 06:36:03;;;;;;;6.57;2.73;;;21.70;62.70;;;;;;5094173;28;20134;-73
2022/05/23 06:38:29;;;;;;;6.60;3.43;;;21.40;63.90;;;;;;5095330;28;20097;-73
2022/05/23 06:40:55;;;;;;;10.77;3.53;;;21.20;65.10;;;;;;5095003;28;20052;-73
2022/05/23 06:43:21;;;;;;;7.40;3.50;;;21.10;66.80;;;;;;5094037;28;20059;-73
2022/05/23 06:45:47;;;;;;;7.17;3.20;;;21.00;68.20;;;;;;5094544;28;20492;-74
2022/05/23 06:48:13;;;;;;;6.80;3.33;;;20.80;68.60;;;;;;5093995;28;20426;-74
2022/05/23 06:50:39;;;;;;;7.73;3.03;;;20.80;69.60;;;;;;5095191;28;20055;-73
2022/05/23 06:53:05;;;;;;;6.20;3.03;;;20.80;70.80;;;;;;5094822;28;20051;-73
2022/05/23 06:55:30;;;;;;;8.03;3.20;;;20.70;71.20;;;;;;5095024;28;20036;-74
2022/05/23 06:57:56;;;;;;;6.87;3.07;;;20.50;72.30;;;;;;5094669;28;20043;-73
2022/05/23 07:00:22;;;;;;;7.83;3.13;;;20.30;74.90;;;;;;5094837;28;20114;-73
2022/05/23 07:02:48;;;;;;;7.57;3.03;;;20.30;77.30;;;;;;5093822;28;20110;-73
2022/05/23 07:13:27;;;;;;;6.60;2.90;;;20.70;77.00;;;;;;5094112;28;20283;-74
2022/05/23 07:15:57;;;;;;;8.37;3.33;;;20.90;76.30;;;;;;5093965;28;20529;-75
2022/05/23 07:18:22;;;;;;;6.27;3.27;;;20.90;74.70;;;;;;5094911;28;20077;-82
2022/05/23 07:20:48;;;;;;;9.37;3.63;;;20.90;75.80;;;;;;5076434;28;20051;-76
2022/05/23 07:23:15;;;;;;;7.23;3.37;;;21.00;75.70;;;;;;5076305;28;20051;-75
2022/05/23 07:25:41;;;;;;;10.17;3.50;;;;;;;;;;5093259;28;20083;-75
2022/05/23 07:28:07;;;;;;;7.80;3.13;;;;;;;;;;5093058;28;20980;-75
2022/05/23 07:30:33;;;;;;;6.83;3.47;;;22.60;94.70;;;;;;5094317;28;20048;-75
2022/05/23 07:32:59;;;;;;;6.77;3.37;;;23.10;66.90;;;;;;5093996;28;20051;-76
2022/05/23 07:35:26;;;;;;;7.17;3.23;;;23.50;63.70;;;;;;5094314;28;20119;-76
2022/05/23 07:37:53;;;;;;;6.90;3.27;;;23.90;60.40;;;;;;5093723;28;20085;-76
2022/05/23 07:40:20;;;;;;;8.13;3.33;;;24.30;60.30;;;;;;5094153;28;20044;-76
2022/05/23 07:42:47;;;;;;;8.13;3.60;;;24.60;58.90;;;;;;5093219;28;20448;-76
2022/05/23 07:45:14;;;;;;;7.47;3.57;;;24.90;57.30;;;;;;5093698;28;20070;-76
2022/05/23 07:47:40;;;;;;;8.80;3.33;;;25.10;56.60;;;;;;5093898;28;20484;-76
2022/05/23 07:50:07;;;;;;;6.67;3.80;;;25.40;56.10;;;;;;5093549;28;20527;-75
2022/05/23 07:52:33;;;;;;;8.50;3.17;;;25.60;55.10;;;;;;5093989;28;20051;-76
2022/05/23 08:00:32;;;;;;;7.97;3.17;;;26.60;58.70;;;;;;5093809;28;20051;-75
2022/05/23 08:03:14;;;;;;;7.93;3.30;;;25.80;52.10;;;;;;5092344;28;20120;-75
2022/05/23 08:05:40;;;;;;;7.10;3.57;;;25.60;53.80;;;;;;5093500;28;20086;-74
2022/05/23 08:08:06;;;;;;;7.23;3.50;;;25.10;53.80;;;;;;5093076;28;20134;-76
2022/05/23 08:10:32;;;;;;;11.97;3.43;;;24.70;54.30;;;;;;5092585;28;20130;-75
2022/05/23 08:12:58;;;;;;;6.53;3.60;;;24.30;55.30;;;;;;5093157;28;20051;-75
2022/05/23 08:15:26;;;;;;;8.33;3.73;;;23.80;55.90;;;;;;5092326;28;20408;-75
2022/05/23 08:17:52;;;;;;;7.87;4.13;;;23.60;57.40;;;;;;5093453;28;20149;-80
2022/05/23 08:20:18;;;;;;;6.57;4.00;;;;;;;;;;5093505;28;20094;-75
2022/05/23 08:22:45;;;;;;;7.53;4.00;;;23.10;74.50;;;;;;5093308;28;20544;-75
2022/05/23 08:25:12;;;;;;;8.63;4.37;;;22.70;60.40;;;;;;5091825;28;20048;-75
2022/05/23 08:27:37;;;;;;;8.60;3.70;;;22.60;62.50;;;;;;5092420;28;20051;-76
2022/05/23 08:30:05;;;;;;;7.33;4.17;;;22.40;63.30;;;;;;5091805;28;20043;-75
2022/05/23 08:32:31;;;;;;;8.50;4.47;;;22.40;64.70;;;;;;5093286;28;20079;-75
2022/05/23 08:34:57;;;;;;;9.93;4.20;;;22.80;65.80;;;;;;5092989;28;20436;-74
2022/05/23 08:37:22;;;;;;;8.40;4.10;;;22.90;65.50;;;;;;5093250;28;20377;-75
2022/05/23 08:39:48;;;;;;;8.40;4.30;;;22.90;65.20;;;;;;5093149;28;20044;-75
2022/05/23 08:42:46;;;;;;;8.57;4.13;;;22.80;65.10;;;;;;5092829;28;20077;-76
2022/05/23 08:45:19;;;;;;;7.43;4.13;;;22.80;66.20;;;;;;5090831;28;20441;-74
2022/05/23 08:48:11;;;;;;;6.80;4.17;;;22.70;66.80;;;;;;5093177;28;20050;-74
2022/05/23 08:51:04;;;;;;;9.33;4.47;;;22.80;66.90;;;;;;5093021;28;20063;-75
2022/05/23 08:53:40;;;;;;;10.03;4.40;;;23.00;67.90;;;;;;5093438;28;20048;-75
2022/05/23 08:56:22;;;;;;;8.67;4.07;;;23.00;67.80;;;;;;5092903;28;20083;-75
2022/05/23 08:58:53;;;;;;;7.57;3.80;;;23.10;67.30;;;;;;5092853;28;20506;-74
2022/05/23 09:01:24;;;;;;;8.07;4.17;;;23.20;67.00;;;;;;5092542;28;20043;-73
2022/05/23 09:04:13;;;;;;;7.83;4.90;;;23.20;66.30;;;;;;5091753;28;20051;-74
2022/05/23 09:06:47;;;;;;;8.23;4.40;;;23.30;67.50;;;;;;5092921;28;20117;-72
2022/05/23 09:09:17;;;;;;;8.23;4.47;;;23.30;67.40;;;;;;5091387;28;20040;-74
2022/05/23 09:11:52;;;;;;;8.37;4.40;;;23.20;67.70;;;;;;5091456;28;20044;-74
2022/05/23 09:14:19;;;;;;;8.87;4.43;;;23.30;69.30;;;;;;5092568;28;20044;-73
2022/05/23 09:16:52;;;;;;;7.43;4.20;;;23.40;70.20;;;;;;5092655;28;20051;-74
2022/05/23 09:19:46;;;;;;;8.93;4.00;;;23.50;69.80;;;;;;5092403;28;20040;-75
2022/05/23 09:22:32;;;;;;;8.00;4.20;;;23.60;68.40;;;;;;5092237;28;20087;-75
2022/05/23 09:25:00;;;;;;;14.33;5.37;;;23.70;68.70;;;;;;5092622;28;20044;-74
2022/05/23 09:28:06;;;;;;;9.37;4.43;;;23.80;68.40;;;;;;5074690;28;20078;-73
2022/05/23 09:30:35;;;;;;;8.73;4.70;;;23.80;67.70;;;;;;5092762;28;20047;-73
2022/05/23 09:33:00;;;;;;;8.23;4.60;;;23.90;68.20;;;;;;5090996;28;20071;-77
2022/05/23 09:35:46;;;;;;;7.43;4.33;;;24.00;67.50;;;;;;5092019;28;20484;-73
2022/05/23 09:38:27;;;;;;;6.40;3.77;;;24.20;65.70;;;;;;5089257;28;20127;-74
2022/05/23 09:40:56;;;;;;;9.40;3.97;;;24.30;62.90;;;;;;5093715;28;20406;-76
2022/05/23 09:49:21;;;;;;;11.47;5.00;;;24.40;64.20;;;;;;5095898;28;20062;-74
2022/05/23 09:52:02;;;;;;;9.70;4.40;;;24.30;64.90;;;;;;5096441;28;20048;-74
2022/05/23 09:54:46;;;;;;;8.00;4.47;;;24.20;65.80;;;;;;5095507;28;20043;-76
2022/05/23 09:57:23;;;;;;;7.30;4.72;;;24.20;65.20;;;;;;5094782;28;20049;-74
2022/05/23 09:59:58;;;;;;;7.47;4.50;;;24.10;66.60;;;;;;5096045;28;20515;-74
2022/05/23 10:02:29;;;;;;;8.98;4.20;;;24.10;65.30;;;;;;5095883;28;20044;-74
2022/05/23 10:04:55;;;;;;;7.63;4.00;;;24.20;65.30;;;;;;5095828;28;20048;-74
2022/05/23 10:07:38;;;;;;;9.17;4.13;;;24.30;64.70;;;;;;5095736;28;20063;-74
2022/05/23 10:10:20;;;;;;;8.33;4.17;;;24.30;64.10;;;;;;5095752;28;20493;-74
2022/05/23 10:12:48;;;;;;;10.93;4.50;;;24.40;63.90;;;;;;5094887;28;20052;-74
2022/05/23 10:15:23;;;;;;;11.33;3.77;;;24.40;63.50;;;;;;5095513;28;20089;-74
2022/05/23 10:18:10;;;;;;;7.17;4.47;;;24.40;64.40;;;;;;5094764;28;20055;-74
2022/05/23 10:20:38;;;;;;;6.83;3.97;;;24.50;64.40;;;;;;5095636;28;20087;-74
2022/05/23 10:23:22;;;;;;;10.07;4.43;;;24.50;64.60;;;;;;5094651;28;20149;-74
2022/05/23 10:26:05;;;;;;;9.47;4.70;;;24.50;64.70;;;;;;5094621;28;20048;-73
2022/05/23 10:29:01;;;;;;;10.40;4.57;;;24.50;62.70;;;;;;5094319;28;20496;-74
2022/05/23 10:31:35;;;;;;;8.70;4.43;;;24.40;61.90;;;;;;5095109;28;20056;-74
2022/05/23 10:34:21;;;;;;;9.10;4.13;;;24.40;63.50;;;;;;5095571;28;20047;-74
2022/05/23 10:36:49;;;;;;;9.33;4.03;;;24.50;63.90;;;;;;5077606;28;20052;-74
2022/05/23 10:42:07;;;;;;;8.03;3.93;;;24.50;61.90;;;;;;5095603;28;20203;-74
2022/05/23 10:44:45;;;;;;;9.07;3.97;;;24.50;61.40;;;;;;5094928;28;20054;-74
2022/05/23 10:47:13;;;;;;;7.63;3.63;;;24.50;61.40;;;;;;5095243;28;20056;-74
2022/05/23 10:50:10;;;;;;;7.70;4.10;;;24.40;61.90;;;;;;5095005;28;20477;-74
2022/05/23 10:52:41;;;;;;;6.50;3.40;;;24.30;61.40;;;;;;5094748;28;20515;-80
2022/05/23 10:55:30;;;;;;;7.47;3.17;;;24.30;60.60;;;;;;5093922;28;20639;-73
2022/05/23 10:58:36;;;;;;;6.77;3.10;;;24.30;59.90;;;;;;5093906;28;20060;-74
2022/05/23 11:01:30;;;;;;;6.57;2.63;;;24.20;58.20;;;;;;5073582;28;20440;-75
2022/05/23 11:03:58;;;;;;;6.90;2.63;;;24.30;59.50;;;;;;5093698;28;20048;-74
2022/05/23 11:06:52;;;;;;;5.60;2.90;;;24.40;60.00;;;;;;5094353;28;20056;-77
2022/05/23 11:09:44;;;;;;;7.07;3.30;;;24.40;59.70;;;;;;5094578;28;20048;-74
2022/05/23 11:12:28;;;;;;;7.70;3.00;;;24.60;59.30;;;;;;5094990;28;20051;-73
2022/05/23 11:15:18;;;;;;;6.35;2.92;;;24.70;59.90;;;;;;5095071;28;20373;-74
2022/05/23 11:18:05;;;;;;;5.23;2.30;;;24.80;60.50;;;;;;5094738;28;20048;-74
2022/05/23 11:20:36;;;;;;;5.73;2.63;;;24.90;58.00;;;;;;5094357;28;20059;-73
2022/05/23 11:23:12;;;;;;;4.07;2.00;;;24.90;57.00;;;;;;5093280;28;20044;-75
2022/05/23 11:25:53;;;;;;;5.53;2.33;;;25.00;56.60;;;;;;5094746;28;20044;-74
2022/05/23 11:34:24;;;;;;;7.63;2.23;;;25.10;53.10;;;;;;5094450;28;20044;-71
2022/05/23 11:37:06;;;;;;;8.40;2.50;;;25.00;52.80;;;;;;5094151;28;20377;-74
2022/05/23 11:39:46;;;;;;;5.60;1.93;;;25.10;52.00;;;;;;5092814;28;20051;-75
2022/05/23 11:42:15;;;;;;;4.83;2.27;;;25.10;51.60;;;;;;5072427;28;20048;-73
2022/05/23 11:44:44;;;;;;;6.57;2.20;;;25.10;51.30;;;;;;5073832;28;20041;-71
2022/05/23 11:47:25;;;;;;;8.33;2.80;;;25.00;51.30;;;;;;5073599;28;20143;-74
2022/05/23 11:49:59;;;;;;;6.80;2.27;;;25.00;51.80;;;;;;5073704;28;20040;-75
2022/05/23 11:52:31;;;;;;;5.90;2.70;;;24.90;52.20;;;;;;5073391;28;20056;-75
2022/05/23 11:54:57;;;;;;;6.13;2.53;;;25.00;52.50;;;;;;5056268;28;20045;-75
2022/05/23 11:57:35;;;;;;;6.83;2.70;;;25.10;52.90;;;;;;5072131;28;20102;-76
2022/05/23 12:00:31;;;;;;;6.67;2.60;;;25.10;52.80;;;;;;5072768;28;20053;-75
2022/05/23 12:03:09;;;;;;;5.43;2.57;;;25.10;53.00;;;;;;5073024;28;20066;-75
2022/05/23 12:05:35;;;;;;;6.37;2.33;;;25.10;53.30;;;;;;5073129;28;20052;-75
2022/05/23 12:08:03;;;;;;;6.43;2.23;;;25.10;53.50;;;;;;5073443;28;20044;-75
2022/05/23 12:10:39;;;;;;;4.33;2.27;;;25.10;53.20;;;;;;5073074;28;20412;-76
2022/05/23 12:13:13;;;;;;;6.47;2.40;;;25.10;53.00;;;;;;5072272;28;20044;-76
2022/05/23 12:15:48;;;;;;;;;;;25.10;53.70;;;;;;5073507;28;20048;-75
2022/05/23 12:18:23;;;;;;;8.38;3.00;;;25.20;53.50;;;;;;5106031;28;19927;-75
2022/05/23 12:20:52;;;;;;;9.20;2.80;;;25.20;54.00;;;;;;5073096;28;20055;-75
2022/05/23 12:23:35;;;;;;;8.20;2.50;;;25.30;53.70;;;;;;5071748;28;20535;-76
2022/05/23 12:26:07;;;;;;;6.73;2.87;;;25.30;53.10;;;;;;5073540;28;20048;-75
2022/05/23 12:28:45;;;;;;;5.83;2.30;;;25.20;53.50;;;;;;5072921;28;20079;-75
2022/05/23 12:31:22;;;;;;;7.97;2.70;;;25.10;53.40;;;;;;5073132;28;20094;-75
2022/05/23 12:34:13;;;;;;;6.27;2.50;;;25.10;53.90;;;;;;5055114;28;20044;-75
2022/05/23 12:36:57;;;;;;;4.63;2.27;;;25.00;53.90;;;;;;5072345;28;20056;-75
2022/05/23 12:39:52;;;;;;;7.35;2.42;;;25.00;54.40;;;;;;5072841;28;20048;-75
2022/05/23 12:42:51;;;;;;;6.03;1.97;;;25.10;54.50;;;;;;5072894;28;20106;-75
2022/05/23 12:45:22;;;;;;;4.77;2.23;;;25.20;53.80;;;;;;5073023;28;20052;-74
2022/05/23 12:48:04;;;;;;;7.23;2.53;;;25.30;54.40;;;;;;5071750;28;20158;-75
2022/05/23 12:50:50;;;;;;;8.37;2.00;;;25.30;53.60;;;;;;5072545;28;20169;-74
2022/05/23 12:53:31;;;;;;;4.53;2.10;;;25.20;52.80;;;;;;5072927;28;20048;-74
2022/05/23 12:56:16;;;;;;;5.67;2.20;;;25.10;53.00;;;;;;5075459;28;20080;-76
2022/05/23 12:59:02;;;;;;;;;;;25.00;54.90;;;;;;5113721;27;20465;-75
2022/05/23 13:01:33;;;;;;;7.53;2.40;;;24.60;55.80;;;;;;5072705;28;20287;-72
2022/05/23 13:04:11;;;;;;;5.23;2.20;;;24.30;58.60;;;;;;5072534;28;20496;-71
2022/05/23 13:07:00;;;;;;;10.30;2.93;;;24.00;62.50;;;;;;5072421;28;20040;-71
2022/05/23 13:09:46;;;;;;;5.53;2.27;;;23.80;67.50;;;;;;5071879;28;20493;-72
2022/05/23 13:12:24;;;;;;;9.27;2.97;;;23.60;79.80;;;;;;5071807;28;20095;-71
2022/05/23 13:14:49;;;;;;;9.83;2.90;;;23.40;90.70;;;;;;5074569;28;20539;-71
2022/05/23 13:17:41;;;;;;;6.67;3.63;;;23.30;90.00;;;;;;5086363;28;20044;-70
2022/05/23 13:23:09;;;;;;;5.57;2.83;;;23.10;96.70;;;;;;5095338;28;20052;-73
2022/05/23 13:25:36;;;;;;;8.10;3.10;;;23.00;97.10;;;;;;5093656;28;20036;-74
2022/05/23 13:28:08;;;;;;;6.87;3.43;;;23.00;99.00;;;;;;5096193;28;20051;-75
2022/05/23 13:30:48;;;;;;;8.93;3.00;;;23.00;99.90;;;;;;5118081;27;20049;-74
2022/05/23 13:33:18;;;;;;;9.30;3.80;;;23.00;99.90;;;;;;5096767;28;20048;-76
2022/05/23 13:35:47;;;;;;;5.80;3.30;;;23.10;99.90;;;;;;5096326;28;20149;-75
2022/05/23 13:38:18;;;;;;;5.77;3.10;;;23.10;99.90;;;;;;5096507;28;20040;-75
2022/05/23 13:40:48;;;;;;;7.50;3.60;;;23.10;99.90;;;;;;5096236;28;20048;-74
2022/05/23 13:43:24;;;;;;;6.93;3.20;;;23.20;99.90;;;;;;5096862;28;20052;-75
2022/05/23 13:46:17;;;;;;;7.30;3.73;;;23.30;99.90;;;;;;5096046;28;20056;-74
2022/05/23 13:48:46;;;;;;;7.30;2.93;;;23.30;99.90;;;;;;5096163;28;20059;-74
2022/05/23 13:51:24;;;;;;;7.43;2.97;;;23.30;98.60;;;;;;5096915;28;20083;-74
2022/05/23 13:54:10;;;;;;;10.10;3.37;;;23.40;98.10;;;;;;5096181;28;20063;-74
2022/05/23 13:56:42;;;;;;;6.03;3.27;;;23.40;96.10;;;;;;5094962;28;20092;-75
2022/05/23 13:59:15;;;;;;;7.80;3.13;;;23.30;96.70;;;;;;5096212;28;20102;-75
2022/05/23 14:02:03;;;;;;;6.67;3.17;;;23.30;96.10;;;;;;5095752;28;20044;-75
2022/05/23 14:04:37;;;;;;;7.07;3.50;;;23.40;98.30;;;;;;5096129;28;20044;-74
2022/05/23 14:07:07;;;;;;;;;;;23.40;98.30;;;;;;5096472;28;20131;-75
2022/05/23 14:09:34;;;;;;;7.27;2.83;;;23.40;96.70;;;;;;5095760;28;20417;-75